Diamantakis — SW5831 — position and weather

sailwx.info

Track history (hours):
 
Tides and Currents Weather Stations Pressure Air Temp Water Temp Dewpoint Dewpoint Depression Visibility Wind Speed Wind Dir Waves Ship Positions

Diamantakis

Last reported at 2017-Dec-04 10:31 UTC. Time now 2018-Feb-22 09:25 UTC.
Position N 40°51' E 024°52'.
Warning: this ship's position is months out of date.

Length 16 m; draft 1.6 m.

Type: Fishing. MMSI: 239608000.

Date/timePositionNaut miles runAvg speedWind from/ knotsBaromVisibWave heightAir tempDewpointWater temp
2017-Dec-04 10:31N 40°51' E 024°52'1 2.6
2017-Dec-04 10:01N 40°52' E 024°54'1 1.9
2017-Dec-04 09:30N 40°52' E 024°55'2 3.1
2017-Dec-04 09:01N 40°53' E 024°56'0 1.0
2017-Dec-04 08:31N 40°53' E 024°57'1 1.3
2017-Dec-04 08:01N 40°53' E 024°58'1 1.3
2017-Dec-04 07:31N 40°53' E 024°59'1 1.8
2017-Dec-04 07:01N 40°53' E 024°60'0 0.8
2017-Dec-04 06:29N 40°53' E 025°00'1 1.8
2017-Dec-04 06:00N 40°53' E 025°01'1 2.2
2017-Dec-04 05:30N 40°54' E 025°03'4 8.0
2017-Dec-04 04:59N 40°57' E 025°06'  
2017-Nov-25 12:00N 40°57' E 025°08'5 8.5
2017-Nov-25 11:28N 40°53' E 025°11'4 7.3
2017-Nov-25 10:59N 40°50' E 025°13'3 5.9
2017-Nov-25 10:30N 40°49' E 025°17'2 4.8
2017-Nov-25 09:59N 40°48' E 025°20'2 2.5
2017-Nov-25 09:22N 40°47' E 025°22'3 5.7
2017-Nov-25 08:55N 40°47' E 025°25'1 1.8
2017-Nov-25 08:13N 40°47' E 025°23'2 6.8
2017-Nov-25 07:52N 40°48' E 025°20'2 6.2
2017-Nov-25 07:28N 40°48' E 025°17'4 7.6
2017-Nov-25 06:58N 40°50' E 025°12'3 6.7
2017-Nov-25 06:31N 40°52' E 025°09'4 7.7
2017-Nov-25 06:00N 40°56' E 025°08'2 4.2
2017-Nov-25 05:30N 40°58' E 025°08'2 0.1
2017-Nov-24 15:45N 40°56' E 025°09'2 8.6
2017-Nov-24 15:28N 40°54' E 025°11'4 8.5
2017-Nov-24 14:58N 40°51' E 025°14'3 6.3
2017-Nov-24 14:30N 40°49' E 025°17'2 3.9
2017-Nov-24 13:58N 40°48' E 025°14'2 4.0
2017-Nov-24 13:30N 40°48' E 025°12'2 5.0
2017-Nov-24 13:01N 40°48' E 025°09'2 3.0
2017-Nov-24 12:30N 40°48' E 025°07'2 4.7
2017-Nov-24 11:59N 40°48' E 025°10'2 3.0
2017-Nov-24 11:27N 40°48' E 025°12'2 3.2
2017-Nov-24 10:52N 40°49' E 025°14'  
Track history (hours):
 
Tides and Currents Weather Stations Pressure Air Temp Water Temp Dewpoint Dewpoint Depression Visibility Wind Speed Wind Dir Waves Ship Positions

Diamantakis

Last reported at 2017-Dec-04 10:31 UTC. Time now 2018-Feb-22 09:25 UTC.
Position N 40°51' E 024°52'.
Warning: this ship's position is months out of date.

Length 16 m; draft 1.6 m.

Type: Fishing. MMSI: 239608000.

Date/timePositionNaut miles runAvg speedWind from/ knotsBaromVisibWave heightAir tempDewpointWater temp
2017-Dec-04 10:31N 40°51' E 024°52'1 2.6
2017-Dec-04 10:01N 40°52' E 024°54'1 1.9
2017-Dec-04 09:30N 40°52' E 024°55'2 3.1
2017-Dec-04 09:01N 40°53' E 024°56'0 1.0
2017-Dec-04 08:31N 40°53' E 024°57'1 1.3
2017-Dec-04 08:01N 40°53' E 024°58'1 1.3
2017-Dec-04 07:31N 40°53' E 024°59'1 1.8
2017-Dec-04 07:01N 40°53' E 024°60'0 0.8
2017-Dec-04 06:29N 40°53' E 025°00'1 1.8
2017-Dec-04 06:00N 40°53' E 025°01'1 2.2
2017-Dec-04 05:30N 40°54' E 025°03'4 8.0
2017-Dec-04 04:59N 40°57' E 025°06'  
2017-Nov-25 12:00N 40°57' E 025°08'5 8.5
2017-Nov-25 11:28N 40°53' E 025°11'4 7.3
2017-Nov-25 10:59N 40°50' E 025°13'3 5.9
2017-Nov-25 10:30N 40°49' E 025°17'2 4.8
2017-Nov-25 09:59N 40°48' E 025°20'2 2.5
2017-Nov-25 09:22N 40°47' E 025°22'3 5.7
2017-Nov-25 08:55N 40°47' E 025°25'1 1.8
2017-Nov-25 08:13N 40°47' E 025°23'2 6.8
2017-Nov-25 07:52N 40°48' E 025°20'2 6.2
2017-Nov-25 07:28N 40°48' E 025°17'4 7.6
2017-Nov-25 06:58N 40°50' E 025°12'3 6.7
2017-Nov-25 06:31N 40°52' E 025°09'4 7.7
2017-Nov-25 06:00N 40°56' E 025°08'2 4.2
2017-Nov-25 05:30N 40°58' E 025°08'2 0.1
2017-Nov-24 15:45N 40°56' E 025°09'2 8.6
2017-Nov-24 15:28N 40°54' E 025°11'4 8.5
2017-Nov-24 14:58N 40°51' E 025°14'3 6.3
2017-Nov-24 14:30N 40°49' E 025°17'2 3.9
2017-Nov-24 13:58N 40°48' E 025°14'2 4.0
2017-Nov-24 13:30N 40°48' E 025°12'2 5.0
2017-Nov-24 13:01N 40°48' E 025°09'2 3.0
2017-Nov-24 12:30N 40°48' E 025°07'2 4.7
2017-Nov-24 11:59N 40°48' E 025°10'2 3.0
2017-Nov-24 11:27N 40°48' E 025°12'2 3.2
2017-Nov-24 10:52N 40°49' E 025°14'  

Dump ship's entire track history